Huvudsida
METAR-TAF:

METAR-TAF

Flygplatser :

Mendoza Aerodrome

Mendoza, Argentina

latitud: 32-50S, longitud: 068-47W, höjd: 705 m

Aktuellt väderrapport

Denna rapport gjordes för 19 minuter sedan, klockan 10:00 UTC
Stilla vind
Temperatur -1°C
Fuktighet 74%
Tryck 1029 hPa
Sikt 10 km eller mer
Inga moln under 1 500 m eller inga cumulonimbus

METAR: SAME 201000Z 00000KT CAVOK M01/M05 Q1029

Tid: 07:19 (10:19 UTC)

Väderprognos

Denna rapport gjordes för 5 timmar och 19 minuter sedan, klockan 05:00 UTC
Prognos gäller från 20 kl. 06 UTC till 21 kl. 06 UTC
Vind 5 kt från nordväst
Sikt 10 km eller mer
Inga moln under 1 500 m eller inga cumulonimbus
Blir
från 20 kl. 13 UTC till 20 kl. 16 UTC
Vind 10 kt från nordost

TAF: SAME 200500Z 2006/2106 32005KT CAVOK TX15/2020Z TNM01/2010Z BECMG 2013/2016 05010KT

Aktuella väderrapporter och prognoser från 4000 flygplatser (METAR- och TAF-rapporter).

De tillgängliga stationerna syns som gula och röda prickar på kartan.

För musen över prickarna för att se namnen på stationerna.

Klicka sedan för att få väderrapporter och prognoser.

För att ändra kartan: Klicka på de gröna knapparna med ett svart kors på för att zooma in; den gröna knappen med ett streck på för att zooma ut; eller på de gröna pilarna för angränsande kartor.


METAR-TAF: